createdAt,value
2022-10-24T00:03:55.690Z,15.14
2022-10-24T00:06:23.410Z,15.06
2022-10-24T00:08:52.097Z,15.01
2022-10-24T00:11:21.929Z,14.78
2022-10-24T00:13:50.330Z,15.05
2022-10-24T00:16:18.528Z,15.08
2022-10-24T00:18:46.993Z,15.06
2022-10-24T00:21:16.333Z,15.25
2022-10-24T00:23:44.312Z,15.32
2022-10-24T00:26:12.934Z,15.37
2022-10-24T00:28:42.266Z,15.50
2022-10-24T00:31:14.404Z,15.42
2022-10-24T00:33:42.370Z,15.50
2022-10-24T00:36:12.692Z,15.48
2022-10-24T00:38:42.155Z,15.38
2022-10-24T00:41:15.046Z,15.30
2022-10-24T00:43:42.714Z,15.26
2022-10-24T00:46:10.789Z,15.44
2022-10-24T00:48:41.644Z,15.45
2022-10-24T00:51:17.540Z,15.34
2022-10-24T00:53:50.828Z,15.37
2022-10-24T00:56:20.672Z,15.36
2022-10-24T00:58:51.162Z,15.32
2022-10-24T01:01:19.278Z,15.33
2022-10-24T01:03:47.115Z,15.23
2022-10-24T01:06:37.956Z,15.35
2022-10-24T01:09:18.457Z,15.07
2022-10-24T01:11:58.707Z,15.36
2022-10-24T01:14:38.097Z,15.37
2022-10-24T01:17:14.292Z,15.41
2022-10-24T01:20:17.374Z,15.61
2022-10-24T01:22:57.006Z,15.86
2022-10-24T01:25:35.671Z,15.94
2022-10-24T01:28:08.726Z,15.92
2022-10-24T01:30:44.571Z,16.02
2022-10-24T01:33:20.169Z,16.10
2022-10-24T01:35:52.722Z,16.02
2022-10-24T01:38:25.361Z,16.01
2022-10-24T01:40:56.934Z,16.27
2022-10-24T01:43:29.427Z,16.14
2022-10-24T01:46:03.216Z,16.13
2022-10-24T01:48:35.565Z,16.10
2022-10-24T01:51:05.651Z,16.13
2022-10-24T01:53:33.499Z,16.00
2022-10-24T01:56:02.337Z,15.92
2022-10-24T01:58:30.939Z,15.98
2022-10-24T02:01:04.621Z,15.91
2022-10-24T02:03:35.650Z,15.91
2022-10-24T02:06:09.190Z,16.13
2022-10-24T02:08:42.025Z,16.09
2022-10-24T02:11:10.484Z,16.09
2022-10-24T02:13:46.142Z,16.04
2022-10-24T02:16:18.744Z,16.31
2022-10-24T02:18:47.960Z,16.14
2022-10-24T02:21:24.821Z,16.19
2022-10-24T02:23:56.259Z,16.27
2022-10-24T02:26:32.183Z,16.31
2022-10-24T02:29:04.401Z,16.32
2022-10-24T02:31:37.131Z,16.14
2022-10-24T02:34:08.597Z,16.28
2022-10-24T02:36:38.479Z,16.25
2022-10-24T02:39:10.411Z,16.41
2022-10-24T02:41:41.751Z,16.34
2022-10-24T02:44:11.356Z,16.25
2022-10-24T02:46:41.761Z,16.20
2022-10-24T02:49:09.677Z,16.33
2022-10-24T02:51:40.554Z,16.40
2022-10-24T02:54:09.108Z,16.43
2022-10-24T02:56:40.523Z,16.33
2022-10-24T03:01:37.160Z,16.29
2022-10-24T03:04:06.889Z,16.40
2022-10-24T03:06:34.610Z,16.42
2022-10-24T03:09:02.743Z,16.36
2022-10-24T03:11:30.531Z,16.38
2022-10-24T03:13:58.412Z,16.30
2022-10-24T03:16:26.926Z,16.36
2022-10-24T03:18:54.812Z,16.39
2022-10-24T03:21:24.718Z,16.27
2022-10-24T03:23:52.345Z,16.44
2022-10-24T03:26:19.979Z,16.53
2022-10-24T03:28:47.802Z,16.36
2022-10-24T03:31:15.639Z,16.34
2022-10-24T03:33:43.444Z,16.32
2022-10-24T03:36:11.076Z,16.34
2022-10-24T03:38:40.239Z,16.13
2022-10-24T03:41:08.027Z,16.21
2022-10-24T03:43:35.725Z,16.22
2022-10-24T03:46:03.476Z,16.23
2022-10-24T03:48:31.170Z,16.31
2022-10-24T03:50:58.827Z,16.19
2022-10-24T03:53:26.694Z,16.23
2022-10-24T03:55:57.370Z,16.36
2022-10-24T03:58:25.437Z,16.42
2022-10-24T04:00:53.442Z,16.34
2022-10-24T04:03:21.143Z,16.39
2022-10-24T04:05:48.859Z,16.30
2022-10-24T04:08:16.657Z,16.19
2022-10-24T04:10:44.558Z,16.32
2022-10-24T04:13:13.818Z,16.45
2022-10-24T04:15:41.572Z,16.29
2022-10-24T04:18:09.783Z,16.30
2022-10-24T04:20:37.618Z,16.17
2022-10-24T04:23:05.404Z,16.08
2022-10-24T04:25:33.119Z,16.15
2022-10-24T04:28:00.786Z,16.26
2022-10-24T04:30:30.034Z,16.19
2022-10-24T04:32:58.407Z,16.06
2022-10-24T04:35:26.688Z,16.01
2022-10-24T04:37:54.920Z,15.93
2022-10-24T04:40:22.600Z,15.86
2022-10-24T04:42:50.226Z,15.86
2022-10-24T04:45:18.123Z,15.83
2022-10-24T04:47:47.974Z,15.80
2022-10-24T04:50:15.917Z,15.75
2022-10-24T04:52:46.204Z,15.77
2022-10-24T04:55:13.978Z,15.66
2022-10-24T04:57:42.020Z,15.70
2022-10-24T05:00:10.951Z,15.73
2022-10-24T05:02:38.774Z,15.74
2022-10-24T05:05:08.478Z,15.62
2022-10-24T05:07:36.959Z,15.67
2022-10-24T05:10:04.928Z,15.61
2022-10-24T05:12:35.544Z,15.60
2022-10-24T05:15:03.471Z,15.70
2022-10-24T05:17:31.281Z,15.74
2022-10-24T05:19:59.029Z,15.74
2022-10-24T05:22:28.268Z,15.57
2022-10-24T05:24:56.034Z,15.67
2022-10-24T05:27:24.929Z,15.69
2022-10-24T05:29:52.800Z,15.51
2022-10-24T05:32:22.325Z,15.55
2022-10-24T05:34:50.682Z,15.54
2022-10-24T05:37:18.887Z,15.48
2022-10-24T05:39:48.289Z,15.46
2022-10-24T05:42:16.372Z,15.47
2022-10-24T05:44:44.128Z,15.64
2022-10-24T05:47:11.855Z,15.56
2022-10-24T05:49:40.106Z,15.46
2022-10-24T05:52:07.867Z,15.44
2022-10-24T05:54:48.434Z,15.47
2022-10-24T05:57:24.991Z,15.43
2022-10-24T05:59:52.787Z,15.45
2022-10-24T06:02:21.951Z,15.33
2022-10-24T06:04:51.212Z,15.47
2022-10-24T06:07:19.575Z,15.41
2022-10-24T06:09:47.449Z,15.45
2022-10-24T06:12:15.349Z,15.38
2022-10-24T06:14:45.674Z,15.38
2022-10-24T06:17:13.570Z,15.37
2022-10-24T06:19:42.042Z,15.44
2022-10-24T06:22:10.157Z,15.49
2022-10-24T06:24:39.098Z,15.52
2022-10-24T06:27:07.540Z,15.61
2022-10-24T06:29:35.582Z,15.47
2022-10-24T06:32:05.139Z,15.42
2022-10-24T06:34:33.051Z,15.50
2022-10-24T06:37:00.924Z,15.52
2022-10-24T06:39:28.851Z,15.53
2022-10-24T06:41:56.542Z,15.63
2022-10-24T06:44:24.303Z,15.62
2022-10-24T06:46:52.108Z,15.66
2022-10-24T06:49:21.506Z,15.45
2022-10-24T06:51:49.235Z,15.41
2022-10-24T06:54:17.102Z,15.49
2022-10-24T06:56:45.008Z,15.62
2022-10-24T06:59:16.760Z,15.59
2022-10-24T07:01:45.332Z,15.54
2022-10-24T07:04:13.347Z,15.62
2022-10-24T07:06:42.704Z,15.72
2022-10-24T07:09:15.176Z,15.81
2022-10-24T07:11:43.419Z,15.81
2022-10-24T07:14:11.500Z,15.70
2022-10-24T07:16:39.967Z,15.80
2022-10-24T07:19:08.125Z,15.82
2022-10-24T07:21:36.284Z,15.91
2022-10-24T07:24:06.402Z,15.87
2022-10-24T07:26:34.271Z,16.09
2022-10-24T07:31:33.126Z,16.13
2022-10-24T07:34:02.547Z,16.16
2022-10-24T07:36:31.643Z,16.26
2022-10-24T07:39:01.097Z,16.28
2022-10-24T07:41:32.844Z,16.30
2022-10-24T07:44:02.209Z,16.29
2022-10-24T07:46:30.189Z,16.25
2022-10-24T07:48:58.043Z,16.23
2022-10-24T07:51:28.175Z,16.18
2022-10-24T07:53:56.479Z,16.21
2022-10-24T07:56:24.440Z,16.24
2022-10-24T07:58:53.556Z,16.11
2022-10-24T08:01:24.176Z,16.33
2022-10-24T08:03:52.027Z,16.26
2022-10-24T08:06:23.180Z,16.25
2022-10-24T08:08:51.157Z,16.24
2022-10-24T08:11:22.043Z,16.22
2022-10-24T08:13:50.531Z,16.39
2022-10-24T08:16:21.893Z,16.40
2022-10-24T08:18:50.269Z,16.29
2022-10-24T08:21:19.752Z,16.30
2022-10-24T08:23:50.089Z,16.47
2022-10-24T08:26:20.322Z,16.50
2022-10-24T08:28:48.361Z,16.52
2022-10-24T08:31:18.244Z,16.48
2022-10-24T08:33:48.355Z,16.38
2022-10-24T08:36:20.240Z,16.52
2022-10-24T08:38:48.159Z,16.48
2022-10-24T08:41:24.670Z,16.48
2022-10-24T08:43:53.175Z,16.48
2022-10-24T08:46:36.107Z,16.60
2022-10-24T08:49:13.997Z,16.58
2022-10-24T08:51:47.303Z,16.64
2022-10-24T08:54:19.665Z,16.59
2022-10-24T08:56:48.707Z,16.52
2022-10-24T08:59:16.599Z,16.44
2022-10-24T09:01:48.484Z,16.39
2022-10-24T09:04:21.353Z,16.50
2022-10-24T09:06:50.428Z,16.48
2022-10-24T09:09:24.313Z,16.42
2022-10-24T09:11:55.764Z,16.40
2022-10-24T09:14:27.322Z,16.42
2022-10-24T09:16:59.068Z,16.40
2022-10-24T09:19:31.440Z,16.46
2022-10-24T09:22:01.099Z,16.35
2022-10-24T09:24:43.710Z,16.44
2022-10-24T09:27:18.905Z,16.32
2022-10-24T09:29:46.776Z,16.31
2022-10-24T09:32:17.685Z,16.20
2022-10-24T09:34:47.062Z,16.33
2022-10-24T09:37:40.390Z,16.31
2022-10-24T09:40:20.895Z,16.41
2022-10-24T09:42:52.332Z,16.46
2022-10-24T09:45:30.395Z,16.36
2022-10-24T09:47:59.480Z,16.44
2022-10-24T09:50:29.038Z,16.38
2022-10-24T09:53:00.032Z,16.39
2022-10-24T09:55:31.129Z,16.44
2022-10-24T09:58:05.293Z,16.34
2022-10-24T10:00:34.862Z,16.48
2022-10-24T10:03:05.652Z,16.61
2022-10-24T10:05:49.322Z,16.70
2022-10-24T10:08:21.098Z,16.71
2022-10-24T10:11:04.019Z,16.81
2022-10-24T10:13:38.171Z,16.72
2022-10-24T10:16:09.957Z,16.84
2022-10-24T10:18:46.875Z,16.71
2022-10-24T10:21:18.991Z,16.67
2022-10-24T10:23:49.223Z,16.52
2022-10-24T10:26:27.371Z,16.69
2022-10-24T10:28:58.979Z,16.71
2022-10-24T10:31:34.729Z,16.78
2022-10-24T10:34:18.845Z,16.72
2022-10-24T10:37:04.123Z,16.80
2022-10-24T10:39:47.988Z,16.76
2022-10-24T10:42:20.404Z,16.85
2022-10-24T10:44:59.592Z,17.02
2022-10-24T10:47:37.322Z,16.95
2022-10-24T10:50:26.483Z,17.00
2022-10-24T10:53:02.419Z,16.82
2022-10-24T10:55:36.196Z,16.89
2022-10-24T10:58:17.609Z,16.89
2022-10-24T11:00:50.610Z,16.53
2022-10-24T11:03:33.458Z,16.90
2022-10-24T11:06:15.400Z,16.88
2022-10-24T11:08:57.197Z,16.88
2022-10-24T11:11:29.860Z,17.00
2022-10-24T11:14:01.516Z,17.04
2022-10-24T11:16:30.540Z,17.06
2022-10-24T11:19:02.373Z,17.14
2022-10-24T11:21:34.592Z,16.89
2022-10-24T11:24:13.551Z,17.07
2022-10-24T11:26:47.161Z,17.02
2022-10-24T11:29:22.500Z,17.08
2022-10-24T11:31:54.668Z,16.95
2022-10-24T11:34:28.318Z,16.97
2022-10-24T11:37:02.258Z,16.93
2022-10-24T11:39:36.202Z,16.96
2022-10-24T11:42:08.630Z,16.87
2022-10-24T11:44:46.733Z,16.96
2022-10-24T11:47:39.498Z,16.84
2022-10-24T11:50:14.640Z,17.05
2022-10-24T11:52:48.340Z,16.79
2022-10-24T11:55:20.108Z,16.89
2022-10-24T11:57:52.088Z,16.87
2022-10-24T12:00:24.485Z,16.92
2022-10-24T12:03:17.100Z,16.94
2022-10-24T12:06:00.076Z,16.91
2022-10-24T12:08:59.261Z,16.89
2022-10-24T12:11:44.978Z,16.81
2022-10-24T12:14:33.385Z,16.85
2022-10-24T12:17:21.548Z,16.81
2022-10-24T12:19:51.697Z,16.75
2022-10-24T12:22:23.764Z,16.61
2022-10-24T12:25:04.107Z,16.86
2022-10-24T12:27:36.594Z,16.91
2022-10-24T12:30:16.527Z,16.81
2022-10-24T12:32:47.294Z,16.69
2022-10-24T12:35:59.374Z,16.63
2022-10-24T12:39:06.837Z,16.81
2022-10-24T12:41:42.713Z,16.64
2022-10-24T12:44:41.382Z,16.64
2022-10-24T12:47:28.949Z,16.59
2022-10-24T12:49:57.153Z,16.47
2022-10-24T12:53:03.951Z,16.45
2022-10-24T12:56:01.931Z,16.30
2022-10-24T12:58:31.244Z,16.44
2022-10-24T13:01:02.831Z,16.27
2022-10-24T13:03:46.427Z,16.29
2022-10-24T13:06:22.546Z,16.23
2022-10-24T13:09:05.697Z,15.99
2022-10-24T13:11:52.181Z,15.89
2022-10-24T13:14:49.542Z,16.19
2022-10-24T13:17:27.875Z,16.04
2022-10-24T13:20:05.360Z,16.00
2022-10-24T13:22:36.917Z,15.92
2022-10-24T13:25:21.323Z,16.03
2022-10-24T13:28:30.314Z,16.15
2022-10-24T13:31:31.313Z,16.11
2022-10-24T13:34:15.825Z,16.40
2022-10-24T13:36:44.337Z,16.56
2022-10-24T13:39:17.617Z,16.95
2022-10-24T13:41:49.424Z,17.27
2022-10-24T13:44:24.457Z,17.55
2022-10-24T13:46:55.030Z,17.78
2022-10-24T13:49:30.050Z,17.50
2022-10-24T13:52:02.919Z,17.43
2022-10-24T13:54:35.855Z,17.30
2022-10-24T13:57:03.702Z,17.39
2022-10-24T13:59:33.803Z,17.41
2022-10-24T14:02:07.344Z,17.30
2022-10-24T14:04:37.100Z,17.22
2022-10-24T14:07:06.934Z,17.20
2022-10-24T14:09:41.219Z,17.36
2022-10-24T14:12:18.098Z,17.21
2022-10-24T14:14:49.480Z,17.72
2022-10-24T14:17:23.575Z,17.67
2022-10-24T14:19:56.216Z,17.42
2022-10-24T14:22:28.115Z,17.37
2022-10-24T14:24:56.757Z,17.59
2022-10-24T14:27:25.558Z,17.54
2022-10-24T14:29:58.160Z,17.53
2022-10-24T14:32:27.888Z,17.51
2022-10-24T14:34:59.359Z,17.10
2022-10-24T14:37:30.492Z,17.12
2022-10-24T14:39:59.591Z,17.16
2022-10-24T14:42:28.361Z,17.17
2022-10-24T14:44:58.498Z,17.08
2022-10-24T14:47:30.216Z,17.00
2022-10-24T14:49:59.887Z,16.90
2022-10-24T14:52:32.336Z,16.94
2022-10-24T14:55:03.142Z,16.93
2022-10-24T14:57:33.547Z,16.91
2022-10-24T15:00:07.453Z,16.81
2022-10-24T15:02:42.200Z,16.93
2022-10-24T15:05:30.868Z,16.87
2022-10-24T15:08:21.083Z,16.73
2022-10-24T15:10:50.762Z,16.45
2022-10-24T15:13:21.606Z,16.69
2022-10-24T15:15:55.298Z,16.59
2022-10-24T15:18:25.834Z,16.57
2022-10-24T15:21:00.129Z,16.31
2022-10-24T15:23:31.441Z,16.22
2022-10-24T15:26:02.471Z,15.53
2022-10-24T15:28:46.277Z,15.16
2022-10-24T15:31:15.484Z,15.15
2022-10-24T15:33:43.639Z,15.18
2022-10-24T15:36:20.360Z,15.21
2022-10-24T15:38:48.733Z,15.26
2022-10-24T15:41:16.547Z,15.13
2022-10-24T15:43:44.416Z,15.18
2022-10-24T15:46:12.071Z,14.60
2022-10-24T15:48:40.264Z,14.48
2022-10-24T15:51:08.152Z,14.41
2022-10-24T15:53:37.337Z,14.52
2022-10-24T15:56:05.270Z,14.36
2022-10-24T15:58:33.125Z,14.42
2022-10-24T16:01:01.257Z,14.24
2022-10-24T16:03:29.309Z,14.10
2022-10-24T16:05:58.382Z,14.45
2022-10-24T16:08:26.767Z,14.50
2022-10-24T16:10:55.984Z,14.33
2022-10-24T16:13:24.318Z,14.46
2022-10-24T16:15:52.195Z,14.38
2022-10-24T16:18:19.928Z,14.17
2022-10-24T16:20:47.635Z,14.13
2022-10-24T16:23:17.042Z,14.18
2022-10-24T16:25:44.911Z,14.29
2022-10-24T16:28:14.133Z,14.09
2022-10-24T16:30:42.860Z,14.23
2022-10-24T16:33:10.713Z,14.16
2022-10-24T16:35:40.032Z,14.15
2022-10-24T16:38:09.814Z,14.24
2022-10-24T16:43:10.819Z,14.00
2022-10-24T16:45:39.952Z,14.10
2022-10-24T16:48:08.317Z,14.07
2022-10-24T16:50:36.496Z,13.91
2022-10-24T16:53:07.413Z,13.83
2022-10-24T16:55:35.481Z,13.49
2022-10-24T16:58:03.736Z,13.74
2022-10-24T17:00:31.622Z,13.99
2022-10-24T17:03:00.816Z,13.96
2022-10-24T17:05:29.727Z,13.94
2022-10-24T17:07:57.504Z,13.87
2022-10-24T17:10:25.432Z,13.81
2022-10-24T17:12:53.682Z,13.67
2022-10-24T17:15:22.484Z,13.46
2022-10-24T17:17:53.888Z,13.73
2022-10-24T17:20:23.157Z,13.80
2022-10-24T17:22:51.334Z,13.81
2022-10-24T17:25:21.890Z,13.67
2022-10-24T17:27:50.361Z,13.78
2022-10-24T17:30:21.349Z,13.84
2022-10-24T17:32:49.996Z,13.87
2022-10-24T17:35:21.565Z,13.91
2022-10-24T17:38:03.199Z,13.81
2022-10-24T17:40:40.548Z,13.73
2022-10-24T17:43:18.209Z,13.86
2022-10-24T17:45:46.508Z,13.83
2022-10-24T17:48:15.994Z,13.86
2022-10-24T17:50:43.722Z,13.72
2022-10-24T17:53:14.283Z,13.65
2022-10-24T17:55:47.058Z,13.67
2022-10-24T17:58:15.698Z,13.59
2022-10-24T18:00:44.274Z,13.69
2022-10-24T18:03:12.678Z,13.50
2022-10-24T18:05:40.749Z,13.59
2022-10-24T18:08:10.856Z,13.48
2022-10-24T18:10:40.981Z,13.34
2022-10-24T18:13:10.066Z,13.15
2022-10-24T18:15:38.444Z,13.32
2022-10-24T18:18:07.121Z,13.20
2022-10-24T18:20:35.760Z,13.31
2022-10-24T18:23:03.957Z,13.27
2022-10-24T18:25:31.872Z,13.08
2022-10-24T18:28:01.096Z,13.18
2022-10-24T18:30:28.893Z,13.00
2022-10-24T18:32:56.763Z,13.00
2022-10-24T18:35:27.444Z,12.93
2022-10-24T18:37:55.287Z,13.09
2022-10-24T18:40:23.904Z,12.99
2022-10-24T18:42:55.063Z,12.96
2022-10-24T18:45:27.139Z,12.70
2022-10-24T18:47:55.569Z,12.93
2022-10-24T18:50:25.198Z,12.76
2022-10-24T18:52:59.307Z,12.80
2022-10-24T18:55:29.641Z,12.70
2022-10-24T18:57:58.003Z,12.56
2022-10-24T19:00:29.764Z,12.75
2022-10-24T19:03:11.740Z,12.70
2022-10-24T19:05:43.898Z,12.72
2022-10-24T19:08:14.639Z,12.67
2022-10-24T19:10:43.261Z,12.63
2022-10-24T19:13:11.292Z,12.65
2022-10-24T19:15:44.097Z,12.63
2022-10-24T19:18:14.906Z,12.65
2022-10-24T19:20:42.595Z,12.67
2022-10-24T19:23:12.315Z,12.72
2022-10-24T19:25:40.476Z,12.50
2022-10-24T19:28:08.576Z,12.54
2022-10-24T19:30:38.171Z,12.25
2022-10-24T19:33:07.439Z,12.47
2022-10-24T19:35:36.656Z,12.46
2022-10-24T19:38:04.470Z,12.40
2022-10-24T19:40:32.375Z,12.46
2022-10-24T19:43:00.202Z,12.34
2022-10-24T19:45:27.866Z,12.38
2022-10-24T19:47:56.217Z,12.42
2022-10-24T19:50:25.262Z,12.39
2022-10-24T19:52:53.040Z,12.37
2022-10-24T19:55:22.637Z,12.39
2022-10-24T19:57:50.338Z,12.49
2022-10-24T20:00:18.517Z,12.48
2022-10-24T20:02:46.519Z,12.33
2022-10-24T20:05:14.440Z,12.31
2022-10-24T20:07:43.509Z,12.41
2022-10-24T20:10:11.409Z,12.33
2022-10-24T20:12:39.275Z,12.33
2022-10-24T20:15:08.226Z,12.37
2022-10-24T20:17:36.645Z,12.44
2022-10-24T20:20:05.558Z,12.25
2022-10-24T20:22:33.759Z,12.38
2022-10-24T20:25:03.091Z,12.38
2022-10-24T20:27:31.483Z,12.32
2022-10-24T20:30:00.614Z,12.28
2022-10-24T20:32:28.688Z,12.37
2022-10-24T20:34:56.965Z,12.47
2022-10-24T20:37:25.233Z,12.90
2022-10-24T20:39:53.045Z,12.76
2022-10-24T20:42:22.648Z,12.66
2022-10-24T20:44:50.540Z,12.62
2022-10-24T20:47:18.891Z,12.68
2022-10-24T20:49:46.995Z,12.50
2022-10-24T20:52:14.986Z,12.61
2022-10-24T20:54:43.011Z,12.68
2022-10-24T20:57:10.740Z,12.44
2022-10-24T20:59:39.993Z,12.71
2022-10-24T21:02:09.831Z,12.62
2022-10-24T21:04:37.691Z,12.62
2022-10-24T21:07:05.474Z,12.62
2022-10-24T21:09:34.264Z,12.53
2022-10-24T21:12:02.333Z,12.57
2022-10-24T21:14:30.167Z,12.51
2022-10-24T21:16:59.288Z,12.48
2022-10-24T21:19:27.744Z,12.62
2022-10-24T21:21:55.493Z,12.44
2022-10-24T21:24:23.262Z,12.56
2022-10-24T21:26:51.015Z,12.52
2022-10-24T21:29:32.806Z,12.48
2022-10-24T21:32:02.833Z,12.47
2022-10-24T21:34:34.221Z,12.32
2022-10-24T21:37:02.999Z,12.20
2022-10-24T21:39:30.661Z,12.43
2022-10-24T21:41:58.277Z,12.38
2022-10-24T21:44:26.247Z,12.30
2022-10-24T21:46:54.459Z,12.31
2022-10-24T21:49:25.759Z,12.42
2022-10-24T21:51:53.545Z,12.14
2022-10-24T21:54:23.218Z,12.38
2022-10-24T21:56:51.251Z,12.40
2022-10-24T21:59:21.272Z,12.27
2022-10-24T22:01:50.338Z,12.31
2022-10-24T22:04:18.745Z,12.38
2022-10-24T22:06:48.291Z,12.35
2022-10-24T22:09:18.475Z,12.42
2022-10-24T22:11:46.155Z,12.32
2022-10-24T22:14:16.001Z,12.28
2022-10-24T22:16:44.455Z,12.39
2022-10-24T22:19:13.599Z,12.42
2022-10-24T22:21:43.720Z,12.41
2022-10-24T22:24:15.062Z,12.47
2022-10-24T22:26:43.436Z,12.32
2022-10-24T22:29:13.603Z,12.38
2022-10-24T22:31:42.040Z,12.45
2022-10-24T22:34:12.286Z,12.39
2022-10-24T22:36:48.460Z,12.39
2022-10-24T22:39:20.806Z,12.46
2022-10-24T22:41:49.261Z,12.66
2022-10-24T22:44:20.524Z,12.61
2022-10-24T22:47:27.090Z,12.66
2022-10-24T22:50:05.324Z,12.69
2022-10-24T22:52:33.681Z,12.76
2022-10-24T22:55:04.458Z,12.86
2022-10-24T23:00:07.641Z,12.88
2022-10-24T23:02:41.346Z,12.97
2022-10-24T23:05:15.001Z,12.92
2022-10-24T23:07:50.493Z,13.03
2022-10-24T23:10:22.473Z,13.13
2022-10-24T23:12:51.393Z,13.03
2022-10-24T23:15:21.624Z,13.10
2022-10-24T23:17:50.558Z,13.08
2022-10-24T23:20:28.818Z,13.06
2022-10-24T23:23:09.195Z,13.11
2022-10-24T23:25:53.719Z,13.16
2022-10-24T23:28:27.550Z,13.05
2022-10-24T23:30:55.769Z,13.11
2022-10-24T23:33:27.305Z,13.17
2022-10-24T23:35:58.714Z,13.21
2022-10-24T23:38:27.239Z,13.16
2022-10-24T23:40:57.325Z,13.15
2022-10-24T23:43:25.575Z,13.21
2022-10-24T23:45:58.599Z,13.24
2022-10-24T23:48:40.326Z,13.16
2022-10-24T23:51:13.090Z,13.16
2022-10-24T23:53:49.200Z,13.19
2022-10-24T23:56:19.943Z,13.20
2022-10-24T23:58:47.875Z,13.16
